New Bedford, Pennsylvania
Current Conditions -  °F | °C
As of 6:51 AM on Monday 20 Oct 2014 (Local Time) from KYNG Reporting Station
Overcast Overcast  
Wind Chill: 41°   Ceiling: 11000
Heat Index: 45°   Visibility: 10mi
Dew Point: 37°   Wind: 7mph
Humidity: 74%   Direction: 190°S
Pressure: 29.97"   Gusts: NA
Location:  41.1°N, 80.5°W
Report Text: KYNG 201051Z 19006KT 10SM FEW100 BKN110 OVC120 07/03 A2997 RMK AO2 SLP152 T00720028
Loading
Personal Weather Stations






























Interactive Weather Map
Tropical Storm Tracking
New forecast layout! Learn more

10-Day Weather Forecast

Advertisements
Track Severe Weather on mobile